Estación de Pirque

Ultimos registro cada 15 minutos 74
Estación Fecha / Hora Temperatura Humedad Lluvia Velocidad Dirección Radiación Presion
74 Pirque 03-05-2026 18:15 17,2 47 0 0 284 0,6 940,3
73 Pirque 03-05-2026 18:00 18,5 42,7 0 0 284 13,1 939,9
72 Pirque 03-05-2026 17:45 19,9 41,3 0 0 284 23,1 940
71 Pirque 03-05-2026 17:30 20 44 0 0 284 84,4 939,8
70 Pirque 03-05-2026 17:15 20,3 42,6 0 0 284 41,9 939,7
69 Pirque 03-05-2026 17:00 21,7 37,9 0 0 285 70,6 939,7
68 Pirque 03-05-2026 16:45 22,3 37,1 0 0,5 264 81,9 939,9
67 Pirque 03-05-2026 16:30 23,1 36 0 1 258 143,1 939,5
66 Pirque 03-05-2026 16:15 23,6 34,6 0 0,5 270 170,6 939,5
65 Pirque 03-05-2026 16:00 23,5 36,3 0 0,5 282 191,9 939,3
64 Pirque 03-05-2026 15:45 25 32,4 0 0,5 274 278,1 939,4
63 Pirque 03-05-2026 15:30 24,5 33,7 0 1 248 300,6 939,2
62 Pirque 03-05-2026 15:15 25,4 32,9 0 1,5 244 360,6 939,5
61 Pirque 03-05-2026 15:00 24,6 33,3 0 1,5 244 319,4 939,4
60 Pirque 03-05-2026 14:45 25,2 31,4 0 2 256 563,1 939,2
59 Pirque 03-05-2026 14:30 25,8 30,8 0 2 247 584,4 939,4
58 Pirque 03-05-2026 14:15 24,8 32,1 0 1,5 257 571,9 939,1
57 Pirque 03-05-2026 14:00 25,4 30,9 0 1,5 270 633,1 939,2
56 Pirque 03-05-2026 13:45 26,1 30,9 0 0,5 292 626,9 939,3
55 Pirque 03-05-2026 13:30 25,8 30,4 0 0,5 288 616,9 939,5
54 Pirque 03-05-2026 13:15 25,8 30,5 0 0,5 268 624,4 939,5
53 Pirque 03-05-2026 13:00 25,6 31 0 0,5 277 624,4 939,6
52 Pirque 03-05-2026 12:45 25,9 30,1 0 0,5 293 633,1 939,9
51 Pirque 03-05-2026 12:30 25,9 30,2 0 0 293 628,1 939,9
50 Pirque 03-05-2026 12:15 25,1 29,8 0 0,5 293 624,4 939,9
49 Pirque 03-05-2026 12:00 24,7 33,4 0 0 293 615,6 940,2
48 Pirque 03-05-2026 11:45 23,6 33,5 0 0,5 293 599,4 940,3
47 Pirque 03-05-2026 11:30 23,5 32,3 0 0,5 293 581,9 940
46 Pirque 03-05-2026 11:15 23,1 33,5 0 0,5 285 563,1 940,3
45 Pirque 03-05-2026 11:00 22,7 34,1 0 0,5 248 538,1 940,3
44 Pirque 03-05-2026 10:45 23,3 35,3 0 0 239 513,1 940,4
43 Pirque 03-05-2026 10:30 22,6 38,5 0 0 239 481,9 940,5
42 Pirque 03-05-2026 10:15 21,7 43,2 0 0 239 448,1 940,3
41 Pirque 03-05-2026 10:00 20,2 46,4 0 0 239 411,9 940,3
40 Pirque 03-05-2026 09:45 20 49 0 0 239 374,4 940,4
39 Pirque 03-05-2026 09:30 17,6 57,8 0 0 239 333,1 940,4
38 Pirque 03-05-2026 09:15 15,1 67,8 0 0 239 290,6 940,5
37 Pirque 03-05-2026 09:00 12,8 74 0 0 237 248,1 940,4
36 Pirque 03-05-2026 08:45 12 74,8 0 0 237 204,4 940,3
35 Pirque 03-05-2026 08:30 9,5 79,2 0 0 237 161,9 940,3
34 Pirque 03-05-2026 08:15 7 89,2 0 0 237 129,4 940,5
33 Pirque 03-05-2026 08:00 4,6 93,5 0 0 237 81,9 940,2
32 Pirque 03-05-2026 07:45 2,9 94,3 0 0 237 13,1 939,9
31 Pirque 03-05-2026 07:30 2,8 94,3 0 0 237 5,6 939,4
30 Pirque 03-05-2026 07:15 1,6 93,6 0 0 237 1,9 939,1
29 Pirque 03-05-2026 07:00 2,2 93,4 0 0 237 0,6 939,1
28 Pirque 03-05-2026 06:45 3 93,4 0 0 237 0,6 939,1
27 Pirque 03-05-2026 06:30 2,9 93,1 0 0 237 0,6 939,1
26 Pirque 03-05-2026 06:15 3 93 0 0 237 0,6 939,2
25 Pirque 03-05-2026 06:00 2,8 92,6 0 0 237 0,6 939,1
24 Pirque 03-05-2026 05:45 3,7 92,2 0 0 237 0,6 939,2
23 Pirque 03-05-2026 05:30 3,8 93,3 0 0 237 0,6 939,1
22 Pirque 03-05-2026 05:15 3 92,5 0 0 237 0,6 939,4
21 Pirque 03-05-2026 05:00 4,1 91,9 0 0 237 0,6 939,3
20 Pirque 03-05-2026 04:45 3,8 92,5 0 0 237 0,6 939
19 Pirque 03-05-2026 04:30 4,1 92,3 0 0 237 0,6 939,4
18 Pirque 03-05-2026 04:15 3,7 92,3 0 0 237 0,6 939,5
17 Pirque 03-05-2026 04:00 3,9 91,7 0 0 237 0,6 939,9
16 Pirque 03-05-2026 03:45 4,6 91,6 0 0 237 0,6 940
15 Pirque 03-05-2026 03:30 4,2 90,9 0 0 237 0,6 940
14 Pirque 03-05-2026 03:15 4,9 90,9 0 0 239 0,6 940,4
13 Pirque 03-05-2026 03:00 4,6 91 0 0 239 0,6 940,4
12 Pirque 03-05-2026 02:45 4,9 89,5 0 0 237 0,6 939,9
11 Pirque 03-05-2026 02:30 5,2 89,8 0 0 237 0,6 939,9
10 Pirque 03-05-2026 02:15 5,6 89,8 0 0 237 0,6 940
9 Pirque 03-05-2026 02:00 4,1 91,1 0 0 237 0,6 939,8
8 Pirque 03-05-2026 01:45 4,2 90,9 0 0 237 0,6 939,8
7 Pirque 03-05-2026 01:30 4,5 89,1 0 0 237 0,6 939,9
6 Pirque 03-05-2026 01:15 5 88,9 0 0 237 0,6 939,9
5 Pirque 03-05-2026 01:00 5,8 87,5 0 0 237 0,6 940,3
4 Pirque 03-05-2026 00:45 6,5 87,1 0 0 237 0,6 940,3
3 Pirque 03-05-2026 00:30 6,5 87,9 0 0 237 0,6 940,3
2 Pirque 03-05-2026 00:15 5,8 90 0 0 237 0,6 940,5
1 Pirque 03-05-2026 00:00 6,2 90,2 0 0 237 0,6 940,4